createdAt,value
2022-09-06T00:00:18.766Z,78.03
2022-09-06T00:02:46.485Z,78.05
2022-09-06T00:05:14.355Z,78.29
2022-09-06T00:07:42.233Z,78.34
2022-09-06T00:10:10.568Z,78.81
2022-09-06T00:12:38.325Z,79.11
2022-09-06T00:15:06.877Z,79.06
2022-09-06T00:17:34.072Z,78.96
2022-09-06T00:20:01.465Z,78.83
2022-09-06T00:22:28.910Z,78.61
2022-09-06T00:24:56.028Z,78.91
2022-09-06T00:27:23.381Z,78.39
2022-09-06T00:29:50.594Z,78.89
2022-09-06T00:32:17.954Z,79.00
2022-09-06T00:34:45.309Z,79.05
2022-09-06T00:37:12.423Z,78.77
2022-09-06T00:39:39.741Z,78.71
2022-09-06T00:42:11.642Z,79.09
2022-09-06T00:44:39.783Z,79.23
2022-09-06T00:47:08.879Z,78.85
2022-09-06T00:49:43.079Z,79.09
2022-09-06T00:52:13.980Z,78.77
2022-09-06T00:54:42.206Z,79.06
2022-09-06T00:57:10.378Z,79.26
2022-09-06T00:59:39.837Z,79.47
2022-09-06T01:02:09.682Z,79.61
2022-09-06T01:04:40.453Z,79.48
2022-09-06T01:07:41.082Z,79.52
2022-09-06T01:10:42.419Z,79.32
2022-09-06T01:13:45.336Z,79.40
2022-09-06T01:16:34.289Z,79.17
2022-09-06T01:19:21.951Z,79.03
2022-09-06T01:22:03.481Z,79.18
2022-09-06T01:24:55.074Z,78.96
2022-09-06T01:27:50.044Z,78.63
2022-09-06T01:30:19.709Z,78.75
2022-09-06T01:32:55.479Z,79.18
2022-09-06T01:35:38.872Z,78.72
2022-09-06T01:38:07.662Z,79.33
2022-09-06T01:40:36.712Z,79.16
2022-09-06T01:43:10.648Z,79.26
2022-09-06T01:46:16.398Z,79.54
2022-09-06T01:49:11.853Z,80.11
2022-09-06T01:51:57.585Z,80.10
2022-09-06T01:54:33.508Z,80.07
2022-09-06T01:57:11.892Z,80.01
2022-09-06T02:00:09.307Z,80.22
2022-09-06T02:02:56.388Z,79.98
2022-09-06T02:05:36.257Z,80.45
2022-09-06T02:08:13.147Z,80.70
2022-09-06T02:11:05.110Z,80.79
2022-09-06T02:13:44.521Z,81.16
2022-09-06T02:16:17.997Z,80.81
2022-09-06T02:18:55.417Z,80.93
2022-09-06T02:21:29.952Z,81.11
2022-09-06T02:24:02.310Z,80.39
2022-09-06T02:26:33.065Z,80.69
2022-09-06T02:29:00.769Z,80.63
2022-09-06T02:31:36.181Z,81.06
2022-09-06T02:34:04.519Z,80.80
2022-09-06T02:36:33.035Z,81.03
2022-09-06T02:39:01.744Z,81.38
2022-09-06T02:41:29.596Z,81.75
2022-09-06T02:43:57.307Z,81.80
2022-09-06T02:46:24.719Z,81.85
2022-09-06T02:48:52.105Z,81.56
2022-09-06T02:51:19.376Z,81.98
2022-09-06T02:53:46.848Z,82.26
2022-09-06T02:56:14.062Z,82.42
2022-09-06T02:58:41.351Z,82.51
2022-09-06T03:01:08.628Z,82.09
2022-09-06T03:03:35.934Z,82.14
2022-09-06T03:06:03.176Z,82.37
2022-09-06T03:08:33.739Z,82.38
2022-09-06T03:11:01.810Z,82.60
2022-09-06T03:13:29.136Z,82.65
2022-09-06T03:15:58.424Z,82.62
2022-09-06T03:18:27.466Z,82.83
2022-09-06T03:20:56.063Z,83.08
2022-09-06T03:23:26.148Z,83.30
2022-09-06T03:25:53.973Z,83.65
2022-09-06T03:28:21.959Z,83.14
2022-09-06T03:30:51.669Z,83.25
2022-09-06T03:33:20.214Z,83.82
2022-09-06T03:35:52.714Z,83.87
2022-09-06T03:38:21.200Z,84.07
2022-09-06T03:40:49.375Z,84.53
2022-09-06T03:43:18.065Z,84.75
2022-09-06T03:45:47.308Z,84.75
2022-09-06T03:48:15.692Z,84.59
2022-09-06T03:50:47.442Z,85.20
2022-09-06T03:53:22.749Z,85.32
2022-09-06T03:55:53.167Z,86.08
2022-09-06T03:58:22.261Z,86.45
2022-09-06T04:00:49.820Z,85.97
2022-09-06T04:03:19.617Z,85.96
2022-09-06T04:05:47.285Z,86.11
2022-09-06T04:08:14.444Z,86.38
2022-09-06T04:10:41.801Z,85.92
2022-09-06T04:13:08.901Z,86.06
2022-09-06T04:15:37.294Z,86.15
2022-09-06T04:18:09.039Z,85.67
2022-09-06T04:20:36.639Z,86.01
2022-09-06T04:23:04.358Z,86.16
2022-09-06T04:25:31.688Z,85.79
2022-09-06T04:27:59.061Z,86.11
2022-09-06T04:30:26.356Z,85.70
2022-09-06T04:32:53.454Z,85.89
2022-09-06T04:35:20.631Z,86.10
2022-09-06T04:37:47.959Z,85.77
2022-09-06T04:40:15.353Z,85.23
2022-09-06T04:42:42.966Z,82.42
2022-09-06T04:45:10.637Z,81.72
2022-09-06T04:47:38.122Z,80.22
2022-09-06T04:50:05.506Z,78.69
2022-09-06T04:52:32.651Z,77.94
2022-09-06T04:54:59.863Z,75.51
2022-09-06T04:57:27.037Z,74.72
2022-09-06T04:59:54.310Z,72.93
2022-09-06T05:02:21.488Z,71.23
2022-09-06T05:04:48.812Z,68.87
2022-09-06T05:07:15.938Z,66.37
2022-09-06T05:09:43.185Z,65.57
2022-09-06T05:12:10.403Z,64.29
2022-09-06T05:14:37.570Z,60.70
2022-09-06T05:17:05.013Z,60.88
2022-09-06T05:19:32.127Z,58.21
2022-09-06T05:21:59.431Z,56.82
2022-09-06T05:24:26.566Z,55.36
2022-09-06T05:26:53.851Z,54.75
2022-09-06T05:29:20.938Z,52.76
2022-09-06T05:31:48.250Z,51.36
2022-09-06T05:34:15.433Z,50.18
2022-09-06T05:36:42.589Z,48.37
2022-09-06T05:39:09.823Z,45.32
2022-09-06T05:41:36.953Z,45.06
2022-09-06T05:44:04.616Z,45.16
2022-09-06T05:46:31.897Z,44.04
2022-09-06T05:49:04.879Z,44.12
2022-09-06T05:51:33.048Z,43.62
2022-09-06T05:54:00.518Z,42.41
2022-09-06T05:56:27.880Z,43.37
2022-09-06T05:58:55.091Z,45.44
2022-09-06T06:01:26.835Z,45.27
2022-09-06T06:04:00.601Z,47.95
2022-09-06T06:06:31.581Z,47.71
2022-09-06T06:08:59.178Z,48.06
2022-09-06T06:11:27.443Z,49.61
2022-09-06T06:13:55.391Z,52.00
2022-09-06T06:16:23.305Z,54.08
2022-09-06T06:18:52.523Z,51.80
2022-09-06T06:21:25.194Z,52.48
2022-09-06T06:23:55.701Z,53.26
2022-09-06T06:26:23.894Z,53.58
2022-09-06T06:28:51.830Z,53.45
2022-09-06T06:31:21.214Z,52.40
2022-09-06T06:33:48.844Z,52.43
2022-09-06T06:36:15.887Z,52.09
2022-09-06T06:38:44.797Z,51.41
2022-09-06T06:41:14.548Z,50.62
2022-09-06T06:43:42.329Z,50.26
2022-09-06T06:46:17.671Z,52.39
2022-09-06T06:48:46.221Z,51.67
2022-09-06T06:51:19.933Z,52.13
2022-09-06T06:53:47.882Z,53.15
2022-09-06T06:56:15.452Z,52.88
2022-09-06T06:58:43.086Z,53.49
2022-09-06T07:01:10.684Z,53.87
2022-09-06T07:03:38.209Z,53.12
2022-09-06T07:06:13.218Z,53.15
2022-09-06T07:08:41.561Z,53.46
2022-09-06T07:11:11.567Z,53.15
2022-09-06T07:13:39.278Z,53.39
2022-09-06T07:16:21.854Z,53.74
2022-09-06T07:18:55.687Z,54.42
2022-09-06T07:21:42.539Z,55.05
2022-09-06T07:24:10.451Z,54.00
2022-09-06T07:26:40.174Z,54.07
2022-09-06T07:29:08.607Z,53.66
2022-09-06T07:34:26.088Z,53.26
2022-09-06T07:36:54.943Z,54.27
2022-09-06T07:39:22.708Z,55.61
2022-09-06T07:41:50.059Z,55.48
2022-09-06T07:44:17.250Z,54.46
2022-09-06T07:46:44.770Z,54.19
2022-09-06T07:49:12.268Z,55.02
2022-09-06T07:51:39.513Z,53.93
2022-09-06T07:54:28.858Z,54.86
2022-09-06T07:56:54.421Z,53.46
2022-09-06T07:59:21.666Z,53.95
2022-09-06T08:01:49.675Z,54.24
2022-09-06T08:04:17.021Z,54.23
2022-09-06T08:09:37.198Z,55.59
2022-09-06T08:12:07.571Z,57.10
2022-09-06T08:14:35.909Z,57.23
2022-09-06T08:17:04.396Z,57.97
2022-09-06T08:19:33.130Z,59.29
2022-09-06T08:22:00.282Z,59.08
2022-09-06T08:24:28.715Z,60.83
2022-09-06T08:26:56.581Z,62.25
2022-09-06T08:29:23.892Z,63.22
2022-09-06T08:31:51.126Z,63.76
2022-09-06T08:34:18.469Z,64.69
2022-09-06T08:36:46.157Z,65.05
2022-09-06T08:39:13.507Z,66.60
2022-09-06T08:41:40.581Z,65.83
2022-09-06T08:47:16.450Z,66.42
2022-09-06T08:49:46.451Z,66.47
2022-09-06T08:52:45.381Z,66.42
2022-09-06T08:55:27.235Z,65.24
2022-09-06T08:58:15.091Z,66.13
2022-09-06T09:00:48.467Z,66.42
2022-09-06T09:03:20.290Z,66.34
2022-09-06T09:05:51.156Z,66.78
2022-09-06T09:08:45.119Z,66.94
2022-09-06T09:11:17.742Z,66.13
2022-09-06T09:13:44.824Z,65.97
2022-09-06T09:16:12.172Z,66.40
2022-09-06T09:18:42.689Z,66.34
2022-09-06T09:21:10.647Z,65.46
2022-09-06T09:23:38.098Z,66.67
2022-09-06T09:26:11.098Z,66.02
2022-09-06T09:28:38.413Z,66.45
2022-09-06T09:31:07.305Z,65.44
2022-09-06T09:33:39.184Z,65.88
2022-09-06T09:36:13.813Z,66.21
2022-09-06T09:38:46.316Z,66.24
2022-09-06T09:41:38.792Z,66.47
2022-09-06T09:44:11.558Z,65.96
2022-09-06T09:46:40.180Z,67.04
2022-09-06T09:49:11.916Z,65.69
2022-09-06T09:52:05.638Z,64.71
2022-09-06T09:54:37.443Z,64.92
2022-09-06T09:57:12.113Z,65.85
2022-09-06T10:00:01.450Z,65.93
2022-09-06T10:02:39.344Z,65.61
2022-09-06T10:05:12.590Z,65.17
2022-09-06T10:07:49.543Z,65.50
2022-09-06T10:10:26.686Z,65.51
2022-09-06T10:13:21.596Z,65.18
2022-09-06T10:15:50.680Z,65.27
2022-09-06T10:18:23.735Z,63.94
2022-09-06T10:20:56.990Z,64.33
2022-09-06T10:26:26.243Z,65.98
2022-09-06T10:29:03.460Z,65.89
2022-09-06T10:31:42.355Z,65.60
2022-09-06T10:34:26.991Z,65.44
2022-09-06T10:37:24.853Z,64.47
2022-09-06T10:40:00.049Z,63.57
2022-09-06T10:42:44.312Z,63.67
2022-09-06T10:45:37.811Z,64.35
2022-09-06T10:48:15.020Z,64.75
2022-09-06T10:51:00.616Z,63.59
2022-09-06T10:53:55.471Z,64.70
2022-09-06T10:57:03.978Z,64.46
2022-09-06T10:59:39.281Z,64.31
2022-09-06T11:02:16.933Z,64.14
2022-09-06T11:07:40.476Z,64.42
2022-09-06T11:10:33.696Z,64.20
2022-09-06T11:13:04.980Z,65.86
2022-09-06T11:16:21.778Z,67.24
2022-09-06T11:18:59.277Z,66.36
2022-09-06T11:21:51.525Z,65.14
2022-09-06T11:24:40.982Z,64.83
2022-09-06T11:27:26.536Z,66.07
2022-09-06T11:29:58.458Z,66.12
2022-09-06T11:32:28.427Z,65.31
2022-09-06T11:34:59.430Z,64.03
2022-09-06T11:37:31.352Z,64.57
2022-09-06T11:42:52.330Z,63.59
2022-09-06T11:45:21.970Z,64.88
2022-09-06T11:47:51.906Z,66.29
2022-09-06T11:50:26.150Z,66.12
2022-09-06T11:53:17.243Z,65.47
2022-09-06T11:55:50.422Z,64.75
2022-09-06T11:58:17.913Z,66.15
2022-09-06T12:01:14.067Z,64.05
2022-09-06T12:04:09.967Z,65.19
2022-09-06T12:07:01.657Z,65.91
2022-09-06T12:09:38.085Z,63.73
2022-09-06T12:12:05.728Z,63.53
2022-09-06T12:14:40.519Z,64.44
2022-09-06T12:17:09.084Z,64.10
2022-09-06T12:19:54.914Z,65.15
2022-09-06T12:22:28.235Z,65.63
2022-09-06T12:25:16.951Z,65.75
2022-09-06T12:28:01.774Z,66.43
2022-09-06T12:30:32.153Z,65.29
2022-09-06T12:33:01.454Z,65.70
2022-09-06T12:38:25.453Z,67.12
2022-09-06T12:40:58.687Z,66.29
2022-09-06T12:43:27.211Z,65.94
2022-09-06T12:45:54.492Z,67.35
2022-09-06T12:48:35.509Z,67.66
2022-09-06T12:51:20.338Z,66.31
2022-09-06T12:54:24.703Z,65.20
2022-09-06T12:56:52.851Z,64.46
2022-09-06T12:59:25.416Z,64.33
2022-09-06T13:01:56.071Z,64.04
2022-09-06T13:04:44.140Z,63.53
2022-09-06T13:07:15.593Z,64.05
2022-09-06T13:09:47.163Z,63.91
2022-09-06T13:12:28.009Z,64.17
2022-09-06T13:14:57.233Z,62.09
2022-09-06T13:17:30.038Z,62.88
2022-09-06T13:20:03.140Z,63.53
2022-09-06T13:22:49.533Z,61.87
2022-09-06T13:25:25.675Z,63.36
2022-09-06T13:27:59.088Z,62.95
2022-09-06T13:30:49.560Z,63.52
2022-09-06T13:33:26.914Z,64.98
2022-09-06T13:36:14.336Z,64.82
2022-09-06T13:38:44.359Z,64.96
2022-09-06T13:41:26.524Z,65.00
2022-09-06T13:44:06.271Z,64.92
2022-09-06T13:46:36.408Z,64.18
2022-09-06T13:49:04.461Z,64.75
2022-09-06T13:51:32.263Z,64.92
2022-09-06T13:54:06.794Z,65.12
2022-09-06T13:56:34.483Z,66.22
2022-09-06T13:59:02.091Z,65.75
2022-09-06T14:01:29.761Z,65.54
2022-09-06T14:03:56.926Z,67.28
2022-09-06T14:06:24.223Z,67.21
2022-09-06T14:09:08.184Z,67.61
2022-09-06T14:11:36.823Z,68.04
2022-09-06T14:14:04.933Z,68.92
2022-09-06T14:16:33.668Z,68.12
2022-09-06T14:19:00.862Z,67.79
2022-09-06T14:21:28.224Z,67.41
2022-09-06T14:23:55.492Z,68.55
2022-09-06T14:26:24.691Z,67.12
2022-09-06T14:28:52.226Z,66.32
2022-09-06T14:31:26.358Z,68.55
2022-09-06T14:33:55.325Z,68.81
2022-09-06T14:36:24.706Z,69.16
2022-09-06T14:38:52.048Z,70.43
2022-09-06T14:41:20.874Z,69.97
2022-09-06T14:43:51.190Z,70.60
2022-09-06T14:46:20.236Z,70.70
2022-09-06T14:48:47.884Z,70.81
2022-09-06T14:51:24.353Z,70.51
2022-09-06T14:54:01.750Z,71.00
2022-09-06T14:56:30.230Z,70.52
2022-09-06T14:58:58.596Z,70.67
2022-09-06T15:01:37.069Z,70.42
2022-09-06T15:04:07.127Z,70.05
2022-09-06T15:06:37.187Z,72.00
2022-09-06T15:09:05.813Z,72.30
2022-09-06T15:11:39.611Z,68.25
2022-09-06T15:14:14.260Z,72.07
2022-09-06T15:16:41.619Z,67.71
2022-09-06T15:19:10.304Z,61.71
2022-09-06T15:21:37.556Z,67.91
2022-09-06T15:24:11.005Z,70.50
2022-09-06T15:26:39.965Z,70.57
2022-09-06T15:29:07.746Z,72.16
2022-09-06T15:31:35.488Z,73.10
2022-09-06T15:37:19.102Z,68.45
2022-09-06T15:39:46.237Z,63.21
2022-09-06T15:42:13.534Z,61.78
2022-09-06T15:44:40.870Z,63.48
2022-09-06T15:47:08.158Z,70.55
2022-09-06T15:49:36.981Z,72.35
2022-09-06T15:52:06.233Z,73.42
2022-09-06T15:54:51.702Z,71.39
2022-09-06T15:57:18.941Z,72.82
2022-09-06T15:59:46.476Z,73.67
2022-09-06T16:02:14.586Z,71.74
2022-09-06T16:04:42.025Z,71.73
2022-09-06T16:07:09.913Z,68.56
2022-09-06T16:09:37.226Z,70.03
2022-09-06T16:12:04.542Z,70.92
2022-09-06T16:14:32.210Z,72.27
2022-09-06T16:16:59.471Z,72.69
2022-09-06T16:19:26.706Z,70.98
2022-09-06T16:21:54.136Z,72.19
2022-09-06T16:24:21.621Z,72.56
2022-09-06T16:26:49.236Z,74.85
2022-09-06T16:29:20.869Z,73.79
2022-09-06T16:31:49.434Z,73.07
2022-09-06T16:34:17.118Z,72.53
2022-09-06T16:36:44.531Z,72.38
2022-09-06T16:39:11.951Z,71.77
2022-09-06T16:41:42.687Z,71.15
2022-09-06T16:44:18.146Z,70.62
2022-09-06T16:46:50.217Z,69.05
2022-09-06T16:49:19.516Z,66.21
2022-09-06T16:51:48.209Z,64.02
2022-09-06T16:54:16.111Z,63.56
2022-09-06T16:56:44.114Z,62.61
2022-09-06T16:59:13.251Z,64.74
2022-09-06T17:01:44.626Z,64.53
2022-09-06T17:04:13.273Z,65.66
2022-09-06T17:06:47.218Z,64.79
2022-09-06T17:09:18.931Z,65.41
2022-09-06T17:11:50.334Z,64.90
2022-09-06T17:14:18.383Z,66.71
2022-09-06T17:17:04.945Z,65.70
2022-09-06T17:19:41.852Z,66.47
2022-09-06T17:22:10.695Z,68.29
2022-09-06T17:24:39.283Z,69.60
2022-09-06T17:27:07.493Z,68.36
2022-09-06T17:29:35.184Z,68.10
2022-09-06T17:32:04.745Z,68.96
2022-09-06T17:34:33.248Z,68.77
2022-09-06T17:37:00.458Z,69.80
2022-09-06T17:39:27.763Z,70.70
2022-09-06T17:41:55.192Z,70.10
2022-09-06T17:44:25.628Z,70.32
2022-09-06T17:47:11.365Z,72.64
2022-09-06T17:49:40.146Z,71.52
2022-09-06T17:52:07.457Z,69.79
2022-09-06T17:54:37.804Z,69.94
2022-09-06T17:57:05.065Z,72.08
2022-09-06T17:59:35.336Z,70.72
2022-09-06T18:02:03.122Z,72.06
2022-09-06T18:04:30.439Z,73.43
2022-09-06T18:06:57.674Z,73.85
2022-09-06T18:09:24.780Z,72.43
2022-09-06T18:11:51.928Z,73.17
2022-09-06T18:14:23.569Z,72.84
2022-09-06T18:16:52.400Z,70.80
2022-09-06T18:19:19.692Z,70.69
2022-09-06T18:21:47.691Z,71.50
2022-09-06T18:24:15.591Z,69.28
2022-09-06T18:26:43.421Z,68.84
2022-09-06T18:29:15.026Z,69.03
2022-09-06T18:31:43.708Z,69.35
2022-09-06T18:34:11.093Z,68.84
2022-09-06T18:36:38.934Z,69.43
2022-09-06T18:39:06.903Z,69.66
2022-09-06T18:41:53.098Z,69.69
2022-09-06T18:44:20.780Z,68.86
2022-09-06T18:46:48.824Z,68.13
2022-09-06T18:49:17.686Z,67.83
2022-09-06T18:51:45.862Z,68.29
2022-09-06T18:54:14.812Z,68.43
2022-09-06T18:56:45.159Z,69.06
2022-09-06T18:59:14.050Z,69.42
2022-09-06T19:01:44.154Z,70.13
2022-09-06T19:04:12.961Z,70.42
2022-09-06T19:06:42.773Z,70.79
2022-09-06T19:09:15.388Z,70.63
2022-09-06T19:11:45.818Z,70.79
2022-09-06T19:14:15.139Z,70.96
2022-09-06T19:16:42.813Z,71.13
2022-09-06T19:19:11.944Z,71.05
2022-09-06T19:21:42.323Z,71.19
2022-09-06T19:24:12.352Z,71.60
2022-09-06T19:26:43.658Z,71.65
2022-09-06T19:29:19.194Z,71.55
2022-09-06T19:31:47.630Z,71.14
2022-09-06T19:34:16.069Z,71.00
2022-09-06T19:36:45.927Z,70.67
2022-09-06T19:39:15.754Z,70.27
2022-09-06T19:41:45.361Z,70.30
2022-09-06T19:44:15.125Z,70.22
2022-09-06T19:46:46.255Z,70.38
2022-09-06T19:49:19.853Z,70.20
2022-09-06T19:51:49.206Z,70.29
2022-09-06T19:54:17.473Z,70.36
2022-09-06T19:56:45.824Z,69.80
2022-09-06T19:59:14.637Z,69.97
2022-09-06T20:01:44.712Z,70.00
2022-09-06T20:04:14.426Z,70.14
2022-09-06T20:06:41.704Z,70.62
2022-09-06T20:09:10.382Z,70.69
2022-09-06T20:11:40.608Z,70.46
2022-09-06T20:14:08.813Z,70.38
2022-09-06T20:16:41.153Z,69.71
2022-09-06T20:19:09.782Z,68.83
2022-09-06T20:21:37.153Z,68.40
2022-09-06T20:24:07.968Z,67.62
2022-09-06T20:26:37.077Z,66.87
2022-09-06T20:29:05.386Z,65.69
2022-09-06T20:31:34.042Z,65.37
2022-09-06T20:34:04.557Z,65.49
2022-09-06T20:36:33.431Z,65.23
2022-09-06T20:39:01.016Z,63.81
2022-09-06T20:41:30.293Z,63.24
2022-09-06T20:43:59.974Z,63.18
2022-09-06T20:46:30.332Z,62.52
2022-09-06T20:49:02.107Z,62.35
2022-09-06T20:51:30.057Z,61.92
2022-09-06T20:53:59.458Z,62.05
2022-09-06T20:56:33.944Z,61.53
2022-09-06T20:59:03.811Z,61.16
2022-09-06T21:01:34.947Z,60.69
2022-09-06T21:04:05.441Z,60.28
2022-09-06T21:06:36.873Z,60.33
2022-09-06T21:09:08.159Z,59.96
2022-09-06T21:11:36.635Z,60.29
2022-09-06T21:14:04.832Z,60.28
2022-09-06T21:16:32.896Z,60.53
2022-09-06T21:19:03.991Z,60.92
2022-09-06T21:21:33.480Z,61.06
2022-09-06T21:24:05.626Z,61.65
2022-09-06T21:26:33.720Z,61.88
2022-09-06T21:29:00.912Z,62.59
2022-09-06T21:31:32.819Z,62.74
2022-09-06T21:34:03.701Z,62.78
2022-09-06T21:36:37.045Z,62.83
2022-09-06T21:39:10.755Z,63.20
2022-09-06T21:41:40.042Z,63.31
2022-09-06T21:44:08.418Z,63.38
2022-09-06T21:46:37.459Z,62.96
2022-09-06T21:49:07.640Z,62.94
2022-09-06T21:51:35.615Z,63.08
2022-09-06T21:54:04.663Z,62.86
2022-09-06T21:56:34.385Z,62.82
2022-09-06T21:59:02.811Z,62.98
2022-09-06T22:01:32.232Z,62.76
2022-09-06T22:04:00.480Z,62.90
2022-09-06T22:06:30.026Z,62.84
2022-09-06T22:09:00.294Z,62.87
2022-09-06T22:11:32.914Z,61.91
2022-09-06T22:14:02.582Z,61.76
2022-09-06T22:16:31.987Z,61.00
2022-09-06T22:18:59.453Z,61.01
2022-09-06T22:21:26.713Z,60.87
2022-09-06T22:23:56.809Z,60.50
2022-09-06T22:26:26.114Z,60.17
2022-09-06T22:29:02.316Z,60.30
2022-09-06T22:31:31.411Z,59.79
2022-09-06T22:33:59.422Z,59.48
2022-09-06T22:36:27.415Z,59.68
2022-09-06T22:38:57.904Z,59.55
2022-09-06T22:41:27.307Z,59.49
2022-09-06T22:43:55.638Z,59.52
2022-09-06T22:46:23.447Z,59.33
2022-09-06T22:48:50.683Z,59.17
2022-09-06T22:51:17.928Z,59.22
2022-09-06T22:53:45.259Z,59.24
2022-09-06T22:56:12.416Z,60.74
2022-09-06T22:58:39.692Z,61.95
2022-09-06T23:01:12.544Z,62.29
2022-09-06T23:03:41.102Z,62.81
2022-09-06T23:06:08.697Z,62.60
2022-09-06T23:08:37.915Z,63.31
2022-09-06T23:11:10.540Z,63.18
2022-09-06T23:13:37.840Z,63.78
2022-09-06T23:16:10.949Z,63.67
2022-09-06T23:18:38.726Z,63.78
2022-09-06T23:21:12.036Z,64.36
2022-09-06T23:23:40.296Z,64.23
2022-09-06T23:26:15.987Z,63.86
2022-09-06T23:28:43.325Z,64.01
2022-09-06T23:31:13.174Z,63.97
2022-09-06T23:33:42.036Z,64.03
2022-09-06T23:36:12.718Z,64.27
2022-09-06T23:38:41.233Z,64.49
2022-09-06T23:41:10.582Z,64.47
2022-09-06T23:43:39.009Z,64.53
2022-09-06T23:46:06.705Z,64.88
2022-09-06T23:48:33.989Z,65.15
2022-09-06T23:51:01.307Z,65.01
2022-09-06T23:53:28.546Z,64.80
2022-09-06T23:55:55.840Z,64.68
2022-09-06T23:58:23.189Z,64.61
